Time;durP1;ratioP1;P1;durP2;ratioP2;P2;SDS_P1;SDS_P2;PMS_P1;PMS_P2;Temp;Humidity;BMP_temperature;BMP_pressure;BME280_temperature;BME280_humidity;BME280_pressure;Samples;Min_cycle;Max_cycle;Signal;HPM_P1;HPM_P2
2022/03/31 00:00:21;;;;;;;21.40;10.67;;;;;;;-0.59;98.73;98943.72;4200989;28;20375;-63
2022/03/31 00:02:47;;;;;;;22.67;11.50;;;;;;;-0.60;99.25;98947.31;4187499;28;20237;-65
2022/03/31 00:05:14;;;;;;;25.97;10.73;;;;;;;-0.57;99.22;98947.06;4189502;28;20351;-66
2022/03/31 00:08:11;;;;;;;26.63;10.97;;;;;;;-0.61;98.83;98939.56;4192958;28;20301;-65
2022/03/31 00:10:41;;;;;;;24.93;10.57;;;;;;;-0.68;98.79;98954.84;4197241;28;20274;-65
2022/03/31 00:13:11;;;;;;;23.87;10.30;;;;;;;-0.66;99.51;98952.97;4181845;28;21022;-61
2022/03/31 00:15:38;;;;;;;22.37;9.80;;;;;;;-0.62;99.55;98948.34;4175226;28;21804;-62
2022/03/31 00:18:05;;;;;;;27.47;10.07;;;;;;;-0.70;98.90;98952.34;4180995;28;20237;-63
2022/03/31 00:20:32;;;;;;;20.20;9.87;;;;;;;-0.75;99.43;98944.03;4181031;28;21801;-65
2022/03/31 00:22:59;;;;;;;22.17;9.07;;;;;;;-0.73;99.26;98933.44;4193034;28;20233;-63
2022/03/31 00:25:26;;;;;;;21.77;9.93;;;;;;;-0.80;99.48;98935.66;4204917;28;20331;-63
2022/03/31 00:27:56;;;;;;;22.40;9.40;;;;;;;-0.76;99.60;98931.06;4192244;28;20240;-64
2022/03/31 00:30:23;;;;;;;23.40;10.03;;;;;;;-0.72;99.61;98933.34;4189983;28;22482;-62
2022/03/31 00:32:49;;;;;;;21.50;9.70;;;;;;;-0.70;98.92;98931.47;4202083;28;21424;-62
2022/03/31 00:35:16;;;;;;;16.67;8.30;;;;;;;-0.75;98.42;98927.50;4176816;28;20228;-62
2022/03/31 00:37:44;;;;;;;16.57;8.50;;;;;;;-0.74;98.54;98930.00;4190571;28;20232;-64
2022/03/31 00:40:13;;;;;;;20.73;8.13;;;;;;;-0.72;98.61;98922.06;4175976;28;21814;-62
2022/03/31 00:42:45;;;;;;;16.03;7.60;;;;;;;-0.73;98.43;98925.63;4210081;28;20240;-62
2022/03/31 00:45:13;;;;;;;20.67;8.93;;;;;;;-0.80;98.28;98938.28;4190496;28;20245;-62
2022/03/31 00:47:40;;;;;;;17.27;7.87;;;;;;;-0.81;98.29;98933.19;4195094;28;20241;-64
2022/03/31 00:50:07;;;;;;;16.63;8.20;;;;;;;-0.89;98.66;98929.34;4194971;28;20232;-63
2022/03/31 00:52:34;;;;;;;20.57;8.03;;;;;;;-0.77;97.95;98930.25;4213602;28;20236;-64
2022/03/31 00:55:09;;;;;;;15.20;7.80;;;;;;;-0.77;98.33;98925.03;4191839;28;20326;-63
2022/03/31 00:57:36;;;;;;;17.57;8.17;;;;;;;-0.73;98.11;98930.84;4205713;28;21233;-63
2022/03/31 01:00:08;;;;;;;20.80;9.03;;;;;;;-0.74;97.96;98916.94;4189523;28;20387;-60
2022/03/31 01:02:36;;;;;;;16.50;8.27;;;;;;;-0.70;97.64;98920.19;4198883;28;20242;-63
2022/03/31 01:05:03;;;;;;;18.20;7.90;;;;;;;-0.74;96.89;98929.19;4193501;28;20349;-62
2022/03/31 01:07:30;;;;;;;16.00;8.17;;;;;;;-0.75;97.20;98922.28;4191521;28;25954;-63
2022/03/31 01:09:57;;;;;;;16.43;8.17;;;;;;;-0.80;97.70;98916.56;4179023;28;20313;-60
2022/03/31 01:12:23;;;;;;;18.70;8.00;;;;;;;-0.75;97.36;98911.84;4180542;28;20244;-61
2022/03/31 01:15:08;;;;;;;17.53;7.83;;;;;;;-0.76;97.17;98918.00;4192668;28;22117;-61
2022/03/31 01:17:35;;;;;;;21.00;7.80;;;;;;;-0.69;96.83;98912.22;4191016;28;20232;-62
2022/03/31 01:20:05;;;;;;;16.07;7.53;;;;;;;-0.82;96.02;98897.56;4190963;28;20240;-61
2022/03/31 01:22:32;;;;;;;21.80;8.03;;;;;;;-0.82;96.80;98905.38;4203333;28;21950;-63
2022/03/31 01:25:00;;;;;;;19.97;8.10;;;;;;;-0.83;96.95;98904.56;4194703;28;20229;-63
2022/03/31 01:27:26;;;;;;;21.97;8.03;;;;;;;-0.88;96.45;98902.28;4190956;28;20244;-63
2022/03/31 01:29:53;;;;;;;19.00;7.97;;;;;;;-0.88;97.12;98891.81;4195515;28;20386;-63
2022/03/31 01:32:20;;;;;;;18.57;7.87;;;;;;;-0.90;96.84;98898.94;4192008;28;20422;-63
2022/03/31 01:34:46;;;;;;;14.73;7.37;;;;;;;-0.94;96.62;98900.09;4182675;28;22318;-63
2022/03/31 01:37:13;;;;;;;15.57;7.63;;;;;;;-0.90;96.99;98904.16;4190200;28;20658;-63
2022/03/31 01:39:40;;;;;;;15.57;7.43;;;;;;;-0.87;97.06;98903.97;4195803;28;21000;-62
2022/03/31 01:42:07;;;;;;;14.13;6.70;;;;;;;-0.95;96.73;98906.28;4190899;28;20287;-62
2022/03/31 01:44:34;;;;;;;16.27;7.30;;;;;;;-0.95;96.84;98908.88;4204405;28;20700;-62
2022/03/31 01:47:00;;;;;;;16.77;7.07;;;;;;;-0.97;96.57;98910.75;4206356;28;21396;-63
2022/03/31 01:49:27;;;;;;;14.27;7.20;;;;;;;-0.95;96.43;98905.44;4191942;28;20232;-62
2022/03/31 01:51:54;;;;;;;13.87;6.37;;;;;;;-0.93;96.36;98899.16;4190159;28;20402;-62
2022/03/31 01:54:20;;;;;;;15.83;6.90;;;;;;;-0.93;96.03;98901.78;4205871;28;20545;-63
2022/03/31 01:56:48;;;;;;;13.10;6.20;;;;;;;-0.98;95.87;98906.50;4201973;28;20248;-62
2022/03/31 01:59:14;;;;;;;13.20;5.90;;;;;;;-1.01;95.62;98901.47;4203219;28;20236;-62
2022/03/31 02:01:41;;;;;;;16.77;6.30;;;;;;;-0.94;95.86;98902.69;4198740;28;20237;-61
2022/03/31 02:04:08;;;;;;;13.83;6.57;;;;;;;-0.92;95.90;98900.00;4193118;28;20674;-61
2022/03/31 02:06:34;;;;;;;11.53;5.83;;;;;;;-0.99;95.63;98902.22;4205603;28;20225;-63
2022/03/31 02:09:00;;;;;;;13.00;5.90;;;;;;;-1.01;95.88;98906.69;4189634;28;21803;-62
2022/03/31 02:11:28;;;;;;;11.27;5.13;;;;;;;-0.99;96.01;98910.03;4178169;28;20331;-61
2022/03/31 02:13:55;;;;;;;11.40;4.73;;;;;;;-0.98;95.28;98908.28;4190928;28;22990;-63
2022/03/31 02:16:22;;;;;;;11.67;6.33;;;;;;;-0.93;94.83;98909.63;4192069;28;20262;-61
2022/03/31 02:18:48;;;;;;;14.43;5.20;;;;;;;-0.95;94.89;98911.50;4195334;28;20362;-64
2022/03/31 02:21:15;;;;;;;13.13;5.50;;;;;;;-0.94;95.03;98907.94;4185054;28;20296;-62
2022/03/31 02:23:42;;;;;;;11.73;4.77;;;;;;;-0.95;95.10;98910.66;4192565;28;20244;-62
2022/03/31 02:26:09;;;;;;;14.10;5.87;;;;;;;-0.98;95.13;98911.72;4188588;28;20303;-60
2022/03/31 02:28:35;;;;;;;11.23;5.53;;;;;;;-0.90;95.59;98904.16;4194931;28;22023;-63
2022/03/31 02:31:02;;;;;;;12.00;6.00;;;;;;;-0.98;95.17;98901.28;4186714;28;20414;-64
2022/03/31 02:33:29;;;;;;;12.10;5.17;;;;;;;-0.99;95.13;98904.81;4175341;28;22037;-60
2022/03/31 02:35:56;;;;;;;10.40;5.43;;;;;;;-1.00;95.10;98900.56;4189846;28;20924;-63
2022/03/31 02:38:22;;;;;;;13.50;6.10;;;;;;;-1.00;95.80;98902.34;4191557;28;20356;-62
2022/03/31 02:40:49;;;;;;;12.37;6.47;;;;;;;-1.05;96.46;98894.84;4198397;28;20348;-62
2022/03/31 02:43:16;;;;;;;13.57;6.20;;;;;;;-1.06;96.32;98899.19;4193210;28;20245;-62
2022/03/31 02:45:42;;;;;;;13.33;5.87;;;;;;;-1.08;96.27;98901.09;4188628;28;20254;-61
2022/03/31 02:48:09;;;;;;;11.70;5.90;;;;;;;-1.00;95.95;98900.56;4190877;28;22147;-61
2022/03/31 02:50:36;;;;;;;11.40;5.43;;;;;;;-1.10;96.16;98902.13;4189286;28;25322;-63
2022/03/31 02:55:47;;;;;;;13.13;5.63;;;;;;;-1.10;96.51;98908.22;4188195;28;20228;-62
2022/03/31 02:58:14;;;;;;;11.43;5.40;;;;;;;-1.05;96.04;98905.28;4189509;28;20233;-62
2022/03/31 03:00:41;;;;;;;12.13;5.50;;;;;;;-1.02;95.40;98910.25;4181937;28;20391;-60
2022/03/31 03:03:08;;;;;;;12.83;5.77;;;;;;;-1.09;95.58;98911.66;4164588;28;20252;-64
2022/03/31 03:05:35;;;;;;;14.33;5.30;;;;;;;-1.13;95.90;98904.97;4194625;28;21163;-62
2022/03/31 03:08:02;;;;;;;13.77;5.37;;;;;;;-1.10;95.98;98903.00;4184411;28;20233;-63
2022/03/31 03:10:29;;;;;;;12.10;5.67;;;;;;;-1.02;95.64;98910.25;4190149;28;21812;-63
2022/03/31 03:12:57;;;;;;;13.83;6.40;;;;;;;-1.07;95.14;98909.75;4196152;28;22773;-62
2022/03/31 03:15:27;;;;;;;12.13;5.63;;;;;;;-1.13;95.69;98915.41;4188996;28;20678;-63
2022/03/31 03:17:54;;;;;;;11.23;5.80;;;;;;;-1.03;95.70;98903.38;4191393;28;20244;-64
2022/03/31 03:20:24;;;;;;;13.40;5.73;;;;;;;-1.04;95.43;98900.88;4204574;28;20324;-63
2022/03/31 03:22:53;;;;;;;16.10;5.50;;;;;;;-1.06;94.89;98909.63;4200585;28;20324;-62
2022/03/31 03:25:21;;;;;;;14.03;6.30;;;;;;;-1.13;94.47;98897.97;4184115;28;20260;-62
2022/03/31 03:27:48;;;;;;;13.43;6.80;;;;;;;-1.16;94.92;98897.38;4214487;28;21289;-62
2022/03/31 03:30:18;;;;;;;14.43;6.67;;;;;;;-1.07;94.96;98907.97;4201733;28;22428;-65
2022/03/31 03:32:45;;;;;;;13.40;6.67;;;;;;;-1.19;95.09;98902.81;4188594;28;21672;-62
2022/03/31 03:35:13;;;;;;;13.23;5.80;;;;;;;-1.13;94.93;98904.97;4186548;28;20304;-62
2022/03/31 03:37:41;;;;;;;15.60;5.93;;;;;;;-1.21;94.36;98900.31;4215593;28;20351;-65
2022/03/31 03:40:09;;;;;;;14.50;6.63;;;;;;;-1.18;94.63;98902.69;4188255;28;26569;-63
2022/03/31 03:42:39;;;;;;;12.60;5.60;;;;;;;-1.17;93.81;98896.53;4186100;28;20308;-62
2022/03/31 03:45:07;;;;;;;15.77;6.80;;;;;;;-1.15;93.77;98893.81;4189536;28;20244;-61
2022/03/31 03:47:33;;;;;;;16.50;6.70;;;;;;;-1.15;93.45;98904.25;4183657;28;20672;-61
2022/03/31 03:50:00;;;;;;;12.70;6.17;;;;;;;-1.10;93.05;98903.00;4183766;28;20240;-63
2022/03/31 03:52:26;;;;;;;14.77;6.33;;;;;;;-1.09;93.11;98903.81;4187751;28;20247;-65
2022/03/31 03:54:53;;;;;;;13.83;6.57;;;;;;;-1.09;92.22;98909.03;4191205;28;21401;-63
2022/03/31 03:57:19;;;;;;;17.17;6.43;;;;;;;-1.17;92.25;98917.41;4192550;28;21448;-63
2022/03/31 03:59:46;;;;;;;16.03;5.90;;;;;;;-1.14;92.56;98914.59;4175511;28;20239;-62
2022/03/31 04:02:12;;;;;;;15.77;5.23;;;;;;;-1.21;92.11;98915.13;4191107;28;21302;-66
2022/03/31 04:04:39;;;;;;;12.47;6.07;;;;;;;-1.14;92.53;98908.53;4198419;28;23648;-67
2022/03/31 04:07:06;;;;;;;11.47;5.37;;;;;;;-1.10;91.86;98908.22;4188225;28;20233;-62
2022/03/31 04:09:32;;;;;;;13.37;5.70;;;;;;;-1.06;91.07;98912.25;4178996;28;20252;-63
2022/03/31 04:11:59;;;;;;;10.47;5.47;;;;;;;-1.09;90.65;98911.66;4192401;28;20234;-63
2022/03/31 04:14:25;;;;;;;12.50;6.33;;;;;;;-1.11;90.92;98922.19;4195909;28;20601;-63
2022/03/31 04:16:54;;;;;;;16.43;5.93;;;;;;;-1.11;90.86;98916.97;4184979;28;21267;-64
2022/03/31 04:19:21;;;;;;;13.73;5.77;;;;;;;-1.11;90.61;98921.34;4194414;28;20273;-61
2022/03/31 04:21:48;;;;;;;17.20;6.07;;;;;;;-1.14;90.76;98921.59;4197563;28;21674;-62
2022/03/31 04:24:14;;;;;;;11.93;5.70;;;;;;;-1.15;90.90;98925.13;4202704;28;20255;-65
2022/03/31 04:26:41;;;;;;;13.60;6.57;;;;;;;-1.11;91.08;98923.97;4184753;28;20243;-61
2022/03/31 04:29:09;;;;;;;13.97;6.10;;;;;;;-1.09;90.67;98930.75;4194390;28;20343;-63
2022/03/31 04:31:41;;;;;;;14.70;6.27;;;;;;;-1.01;89.76;98938.03;4189295;28;25412;-63
2022/03/31 04:34:13;;;;;;;16.97;6.60;;;;;;;-1.02;89.37;98930.31;4188769;28;20298;-63
2022/03/31 04:36:39;;;;;;;21.27;6.33;;;;;;;-1.07;89.43;98938.47;4181442;28;21148;-63
2022/03/31 04:39:06;;;;;;;11.20;5.57;;;;;;;-0.99;89.04;98945.75;4185161;28;23557;-63
2022/03/31 04:41:33;;;;;;;12.27;5.67;;;;;;;-0.99;89.53;98946.59;4195998;28;20760;-62
2022/03/31 04:43:59;;;;;;;19.87;5.83;;;;;;;-1.04;89.23;98937.44;4172537;28;22355;-62
2022/03/31 04:46:26;;;;;;;13.80;6.30;;;;;;;-1.09;89.98;98930.75;4201905;28;20250;-63
2022/03/31 04:48:53;;;;;;;12.60;6.20;;;;;;;-1.09;89.85;98935.13;4208963;28;20487;-62
2022/03/31 04:51:19;;;;;;;14.83;5.93;;;;;;;-1.00;88.84;98949.31;4195934;28;20271;-62
2022/03/31 04:53:46;;;;;;;17.40;7.03;;;;;;;-1.10;88.96;98944.75;4217977;28;20705;-60
2022/03/31 04:56:14;;;;;;;10.87;5.87;;;;;;;-1.03;89.04;98939.94;4203456;28;20244;-64
2022/03/31 04:58:40;;;;;;;15.43;5.67;;;;;;;-0.94;88.66;98949.69;4218011;28;20223;-64
2022/03/31 05:01:07;;;;;;;13.80;5.50;;;;;;;-0.95;88.15;98935.00;4204826;28;21731;-64
2022/03/31 05:03:33;;;;;;;10.37;5.17;;;;;;;-0.95;87.67;98937.59;4203089;28;20240;-62
2022/03/31 05:06:00;;;;;;;14.13;5.97;;;;;;;-0.99;87.24;98935.31;4190594;28;20236;-63
2022/03/31 05:08:27;;;;;;;16.83;5.77;;;;;;;-0.96;87.62;98946.41;4182099;28;20285;-65
2022/03/31 05:10:54;;;;;;;10.90;4.90;;;;;;;-1.04;88.00;98946.09;4202988;28;20244;-62
2022/03/31 05:13:21;;;;;;;18.07;5.60;;;;;;;-0.98;87.65;98952.66;4204003;28;20900;-61
2022/03/31 05:15:47;;;;;;;15.17;5.63;;;;;;;-0.89;87.72;98950.22;4203590;28;20236;-63
2022/03/31 05:18:14;;;;;;;12.13;5.80;;;;;;;-0.79;86.89;98968.69;4191375;28;20236;-63
2022/03/31 05:20:42;;;;;;;12.00;5.97;;;;;;;-0.79;86.10;98962.63;4195229;28;20720;-62
2022/03/31 05:23:12;;;;;;;15.23;5.80;;;;;;;-0.80;87.02;98969.63;4200169;28;20241;-62
2022/03/31 05:25:39;;;;;;;15.73;6.40;;;;;;;-0.83;86.27;98961.19;4181756;28;21530;-63
2022/03/31 05:28:06;;;;;;;13.83;6.13;;;;;;;-0.79;86.69;98967.84;4197193;28;20666;-62
2022/03/31 05:30:34;;;;;;;16.27;5.37;;;;;;;-0.85;86.87;98967.31;4201057;28;20292;-62
2022/03/31 05:33:01;;;;;;;13.30;5.97;;;;;;;-0.77;86.56;98958.13;4211641;28;23364;-63
2022/03/31 05:35:27;;;;;;;13.17;5.93;;;;;;;-0.75;86.13;98964.91;4195246;28;20703;-63
2022/03/31 05:37:55;;;;;;;17.10;6.33;;;;;;;-0.75;86.70;98962.31;4190647;28;20427;-61
2022/03/31 05:40:22;;;;;;;15.50;6.10;;;;;;;-0.72;85.91;98956.84;4197550;28;21673;-64
2022/03/31 05:42:49;;;;;;;12.07;5.60;;;;;;;-0.72;86.25;98969.09;4180444;28;20280;-64
2022/03/31 05:45:15;;;;;;;13.50;5.57;;;;;;;-0.67;85.80;98977.44;4187774;28;20232;-66
2022/03/31 05:47:43;;;;;;;13.67;5.93;;;;;;;-0.76;85.88;98975.47;4197813;28;23147;-67
2022/03/31 05:50:11;;;;;;;12.73;6.27;;;;;;;-0.80;85.92;98977.44;4187619;28;20412;-65
2022/03/31 05:52:38;;;;;;;12.97;6.17;;;;;;;-0.75;86.58;98984.97;4168920;28;20279;-67
2022/03/31 05:55:06;;;;;;;15.40;5.80;;;;;;;-0.70;85.81;98990.72;4186829;28;20786;-66
2022/03/31 05:57:36;;;;;;;13.43;5.97;;;;;;;-0.64;85.68;98987.66;4178695;28;21619;-69
2022/03/31 06:00:05;;;;;;;11.13;5.60;;;;;;;-0.67;85.57;98993.09;4202859;28;20236;-65
2022/03/31 06:02:31;;;;;;;16.03;5.57;;;;;;;-0.58;85.51;98987.22;4192318;28;20301;-63
2022/03/31 06:05:15;;;;;;;15.73;6.60;;;;;;;-0.62;85.28;99001.44;4188989;28;22953;-65
2022/03/31 06:07:42;;;;;;;13.80;6.10;;;;;;;-0.53;84.92;98995.56;4177669;28;20398;-65
2022/03/31 06:10:08;;;;;;;12.43;5.77;;;;;;;-0.50;85.07;99005.78;4206872;28;20241;-63
2022/03/31 06:12:35;;;;;;;17.37;6.57;;;;;;;-0.45;84.68;99003.66;4180057;28;20236;-64
2022/03/31 06:15:03;;;;;;;11.93;5.33;;;;;;;-0.37;84.02;99004.91;4200863;28;20233;-65
2022/03/31 06:17:30;;;;;;;10.90;5.33;;;;;;;-0.40;84.16;98994.66;4187394;28;23263;-64
2022/03/31 06:19:56;;;;;;;15.67;5.40;;;;;;;-0.35;84.54;98995.16;4211742;28;21624;-64
2022/03/31 06:22:23;;;;;;;15.50;5.17;;;;;;;-0.23;83.87;99002.13;4197996;28;20676;-65
2022/03/31 06:24:50;;;;;;;15.60;5.60;;;;;;;-0.17;83.51;99004.28;4197857;28;20286;-66
2022/03/31 06:27:16;;;;;;;11.43;5.73;;;;;;;-0.25;83.29;99014.47;4191148;28;25488;-66
2022/03/31 06:29:47;;;;;;;19.00;5.57;;;;;;;-0.29;83.43;99010.41;4177940;28;20240;-63
2022/03/31 06:32:13;;;;;;;9.63;4.93;;;;;;;-0.30;83.75;99011.38;4177742;28;25675;-65
2022/03/31 06:34:41;;;;;;;12.77;5.47;;;;;;;-0.26;83.50;99018.88;4196075;28;20308;-63
2022/03/31 06:37:08;;;;;;;14.27;5.93;;;;;;;-0.14;83.62;99034.59;4179060;28;20230;-64
2022/03/31 06:39:41;;;;;;;14.63;6.03;;;;;;;-0.21;83.57;99023.75;4179282;28;22041;-64
2022/03/31 06:42:08;;;;;;;12.93;5.53;;;;;;;-0.05;83.57;99026.94;4178448;28;20237;-67
2022/03/31 06:44:35;;;;;;;13.93;5.23;;;;;;;0.08;82.29;99015.56;4168001;28;20237;-64
2022/03/31 06:47:02;;;;;;;11.30;5.27;;;;;;;0.21;82.31;99021.53;4193623;28;21534;-65
2022/03/31 06:49:29;;;;;;;13.17;5.47;;;;;;;0.36;81.60;99014.34;4239415;28;20291;-62
2022/03/31 06:51:55;;;;;;;17.43;5.67;;;;;;;0.46;80.49;99012.69;4195087;28;20229;-63
2022/03/31 06:54:22;;;;;;;17.00;5.80;;;;;;;0.62;80.34;99009.75;4193139;28;20251;-63
2022/03/31 06:56:49;;;;;;;9.00;4.70;;;;;;;0.89;79.47;99014.66;4184008;28;20743;-64
2022/03/31 06:59:16;;;;;;;12.97;5.80;;;;;;;1.11;78.19;99019.03;4211385;28;22790;-66
2022/03/31 07:01:42;;;;;;;11.30;5.47;;;;;;;1.30;76.77;99022.84;4194197;28;25412;-70
2022/03/31 07:04:10;;;;;;;13.30;5.23;;;;;;;1.18;77.16;99022.84;4193703;28;26320;-65
2022/03/31 07:06:37;;;;;;;10.83;5.67;;;;;;;1.21;77.01;99025.22;4202681;28;20243;-68
2022/03/31 07:09:06;;;;;;;13.60;4.97;;;;;;;1.15;76.64;99030.97;4198545;28;20237;-63
2022/03/31 07:11:34;;;;;;;11.53;5.37;;;;;;;1.32;76.71;99034.88;4229727;28;20310;-66
2022/03/31 07:14:05;;;;;;;14.30;5.97;;;;;;;1.26;75.67;99022.25;4211152;28;22484;-65
2022/03/31 07:16:33;;;;;;;12.30;5.30;;;;;;;1.18;75.83;99027.25;4188872;28;20231;-69
2022/03/31 07:19:01;;;;;;;10.10;5.20;;;;;;;1.36;76.68;99023.19;4185586;28;20240;-66
2022/03/31 07:21:31;;;;;;;13.63;4.77;;;;;;;1.44;76.01;99027.81;4203006;28;20351;-65
2022/03/31 07:23:58;;;;;;;14.77;5.27;;;;;;;1.30;75.23;99021.06;4192519;28;20241;-65
2022/03/31 07:26:24;;;;;;;13.97;5.87;;;;;;;1.09;75.65;99023.56;4215056;28;20583;-66
2022/03/31 07:28:51;;;;;;;11.47;5.17;;;;;;;0.94;76.92;99019.53;4186923;28;20237;-64
2022/03/31 07:31:18;;;;;;;11.63;5.63;;;;;;;1.01;76.84;99011.06;4200268;28;20294;-67
2022/03/31 07:33:45;;;;;;;16.93;5.73;;;;;;;1.06;76.47;99013.34;4208404;28;20229;-65
2022/03/31 07:36:12;;;;;;;13.73;5.67;;;;;;;1.00;76.06;99004.16;4195699;28;20263;-69
2022/03/31 07:38:40;;;;;;;10.93;5.47;;;;;;;1.05;76.13;99012.50;4220502;28;20270;-65
2022/03/31 07:41:07;;;;;;;23.10;5.47;;;;;;;1.12;75.86;99017.25;4199434;28;20232;-71
2022/03/31 07:43:34;;;;;;;12.93;5.13;;;;;;;1.17;75.50;99015.09;4201696;28;20243;-69
2022/03/31 07:46:00;;;;;;;10.20;4.90;;;;;;;1.08;75.35;99021.91;4186542;28;21357;-71
2022/03/31 07:48:27;;;;;;;9.57;4.60;;;;;;;1.20;75.02;99026.19;4192767;28;20243;-68
2022/03/31 07:50:56;;;;;;;10.13;4.90;;;;;;;1.35;74.82;99018.06;4180165;28;20238;-66
2022/03/31 07:53:23;;;;;;;15.90;4.67;;;;;;;1.30;73.74;99015.81;4190220;28;21219;-69
2022/03/31 07:55:50;;;;;;;7.40;4.00;;;;;;;1.40;73.58;99015.91;4183908;28;20245;-67
2022/03/31 07:58:16;;;;;;;11.73;5.00;;;;;;;1.38;73.21;99033.53;4225590;28;20290;-65
2022/03/31 08:00:43;;;;;;;8.77;4.73;;;;;;;1.44;73.28;99030.44;4243726;28;21779;-66
2022/03/31 08:03:10;;;;;;;11.13;4.50;;;;;;;1.53;72.79;99027.09;4177822;28;20229;-63
2022/03/31 08:05:39;;;;;;;12.77;4.90;;;;;;;1.66;72.61;99030.41;4195713;28;21004;-66
2022/03/31 08:08:06;;;;;;;9.87;5.10;;;;;;;1.91;71.06;99028.41;4176858;28;20268;-68
2022/03/31 08:10:32;;;;;;;13.33;4.97;;;;;;;2.15;70.28;99033.44;4195138;28;20229;-65
2022/03/31 08:12:59;;;;;;;13.43;5.73;;;;;;;2.19;69.05;99034.88;4207532;28;23111;-65
2022/03/31 08:15:25;;;;;;;9.37;4.07;;;;;;;2.28;68.23;99036.72;4202759;28;20225;-64
2022/03/31 08:17:52;;;;;;;14.30;4.53;;;;;;;2.31;67.56;99038.28;4189952;28;20229;-64
2022/03/31 08:20:19;;;;;;;10.70;3.83;;;;;;;2.32;66.42;99045.19;4211708;28;21242;-64
2022/03/31 08:22:46;;;;;;;14.57;4.40;;;;;;;2.17;66.65;99046.44;4187456;28;20731;-65
2022/03/31 08:25:13;;;;;;;8.27;3.87;;;;;;;2.19;66.75;99040.13;4189459;28;25531;-66
2022/03/31 08:27:40;;;;;;;12.17;4.53;;;;;;;2.27;66.45;99050.84;4228066;28;20241;-65
2022/03/31 08:30:19;;;;;;;12.13;4.07;;;;;;;2.32;66.88;99053.91;4207557;28;20233;-63
2022/03/31 08:32:46;;;;;;;13.53;3.80;;;;;;;2.27;65.81;99047.34;4194409;28;20849;-68
2022/03/31 08:35:15;;;;;;;11.30;3.60;;;;;;;2.26;65.80;99048.31;4186140;28;23612;-66
2022/03/31 08:37:42;;;;;;;8.23;4.00;;;;;;;2.21;66.43;99053.94;4205472;28;20263;-67
2022/03/31 08:40:14;;;;;;;13.97;4.43;;;;;;;2.45;65.44;99060.75;4205122;28;20234;-68
2022/03/31 08:42:41;;;;;;;7.50;3.73;;;;;;;2.42;64.85;99069.72;4194548;28;20225;-66
2022/03/31 08:45:12;;;;;;;10.87;4.07;;;;;;;2.35;64.90;99065.94;4212385;28;20278;-67
2022/03/31 08:47:39;;;;;;;11.30;4.43;;;;;;;2.41;63.96;99056.72;4203859;28;22406;-69
2022/03/31 08:50:17;;;;;;;11.53;4.20;;;;;;;2.47;63.64;99041.28;4187534;28;22511;-68
2022/03/31 08:52:44;;;;;;;11.00;3.83;;;;;;;2.73;63.72;99041.72;4197101;28;20232;-65
2022/03/31 08:55:12;;;;;;;9.80;3.73;;;;;;;2.73;62.46;99051.41;4190153;28;21744;-65
2022/03/31 08:57:50;;;;;;;10.17;3.50;;;;;;;2.90;61.78;99042.94;4203672;28;20237;-67
2022/03/31 09:00:20;;;;;;;8.83;3.40;;;;;;;2.94;60.55;99046.13;4214177;28;20412;-68
2022/03/31 09:02:58;;;;;;;8.57;3.50;;;;;;;2.90;60.70;99049.97;4219172;28;20238;-69
2022/03/31 09:05:26;;;;;;;9.00;3.53;;;;;;;2.95;61.00;99058.31;4196934;28;22190;-67
2022/03/31 09:08:05;;;;;;;8.97;4.10;;;;;;;2.96;60.03;99058.16;4175763;28;20233;-67
2022/03/31 09:10:35;;;;;;;8.33;3.73;;;;;;;2.87;59.84;99051.06;4197912;28;20236;-67
2022/03/31 09:13:04;;;;;;;14.13;4.57;;;;;;;2.65;60.66;99057.31;4218476;28;20233;-68
2022/03/31 09:15:32;;;;;;;7.40;4.03;;;;;;;2.68;61.26;99053.59;4192346;28;20257;-68
2022/03/31 09:17:59;;;;;;;13.30;4.20;;;;;;;2.77;60.97;99039.69;4185913;28;22005;-67
2022/03/31 09:20:40;;;;;;;9.20;4.33;;;;;;;2.80;60.40;99042.03;4169024;28;21632;-67
2022/03/31 09:23:13;;;;;;;12.17;3.83;;;;;;;2.79;60.00;99043.03;4182638;28;20291;-65
2022/03/31 09:25:39;;;;;;;12.63;3.70;;;;;;;2.93;59.75;99049.72;4193456;28;20305;-67
2022/03/31 09:28:18;;;;;;;14.37;3.70;;;;;;;2.99;59.26;99056.25;4181104;28;26043;-67
2022/03/31 09:30:54;;;;;;;9.93;3.60;;;;;;;2.94;59.11;99061.91;4187431;28;21660;-65
2022/03/31 09:33:41;;;;;;;7.87;3.60;;;;;;;2.98;58.75;99052.78;4191876;28;20224;-69
2022/03/31 09:36:15;;;;;;;11.50;3.83;;;;;;;2.98;58.84;99044.09;4200039;28;20248;-67
2022/03/31 09:38:50;;;;;;;9.97;3.53;;;;;;;3.05;58.07;99058.38;4194366;28;20237;-67
2022/03/31 09:41:33;;;;;;;8.63;3.50;;;;;;;3.19;57.73;99067.69;4201454;28;21807;-68
2022/03/31 09:44:03;;;;;;;6.97;3.43;;;;;;;3.19;56.76;99065.91;4171359;28;20247;-66
2022/03/31 09:46:35;;;;;;;10.33;3.40;;;;;;;3.17;56.68;99062.56;4227735;28;20278;-65
2022/03/31 09:49:26;;;;;;;8.13;3.80;;;;;;;3.39;57.20;99064.16;4198472;28;20411;-67
2022/03/31 09:51:56;;;;;;;9.93;3.57;;;;;;;3.37;55.80;99059.06;4190771;28;20255;-70
2022/03/31 09:54:26;;;;;;;17.00;4.83;;;;;;;3.29;56.67;99050.97;4197318;28;20233;-69
2022/03/31 09:56:53;;;;;;;13.63;4.73;;;;;;;3.34;55.81;99059.28;4198641;28;20247;-67
2022/03/31 09:59:20;;;;;;;8.97;4.03;;;;;;;3.47;55.91;99060.88;4200324;28;21198;-67
2022/03/31 10:01:51;;;;;;;11.17;4.10;;;;;;;3.65;56.26;99061.88;4226348;28;21968;-66
2022/03/31 10:04:19;;;;;;;13.53;4.67;;;;;;;3.87;55.74;99055.56;4201430;28;21326;-65
2022/03/31 10:06:53;;;;;;;13.63;5.33;;;;;;;4.09;55.26;99058.91;4178889;28;20239;-68
2022/03/31 10:09:20;;;;;;;16.40;4.70;;;;;;;3.90;54.51;99062.38;4201196;28;20231;-64
2022/03/31 10:11:50;;;;;;;13.23;4.07;;;;;;;3.80;54.09;99063.16;4196456;28;20232;-65
2022/03/31 10:14:29;;;;;;;17.90;6.13;;;;;;;3.88;54.87;99061.66;4189174;28;20282;-65
2022/03/31 10:16:58;;;;;;;11.87;4.37;;;;;;;3.99;54.91;99069.44;4208923;28;21841;-65
2022/03/31 10:19:27;;;;;;;11.87;3.63;;;;;;;4.00;54.18;99066.69;4197604;28;21034;-70
2022/03/31 10:22:08;;;;;;;16.30;5.63;;;;;;;3.89;54.49;99047.56;4195853;28;25464;-67
2022/03/31 10:24:41;;;;;;;10.80;4.33;;;;;;;3.88;54.19;99051.13;4198755;28;20236;-67
2022/03/31 10:27:32;;;;;;;11.77;4.30;;;;;;;3.89;55.91;99048.38;4207044;28;22732;-70
2022/03/31 10:30:21;;;;;;;10.30;3.83;;;;;;;3.95;54.20;99053.06;4177789;28;20244;-70
2022/03/31 10:33:02;;;;;;;8.53;4.17;;;;;;;4.17;54.28;99053.81;4189836;28;20229;-66
2022/03/31 10:35:39;;;;;;;13.97;4.40;;;;;;;4.04;53.78;99051.44;4207514;28;20294;-64
2022/03/31 10:38:18;;;;;;;15.23;4.37;;;;;;;4.10;53.58;99045.63;4200902;28;20245;-64
2022/03/31 10:40:49;;;;;;;11.57;4.33;;;;;;;4.20;55.17;99046.44;4187256;28;21180;-65
2022/03/31 10:43:26;;;;;;;10.53;3.87;;;;;;;4.41;52.89;99048.13;4188093;28;20271;-66
2022/03/31 10:45:58;;;;;;;12.10;3.60;;;;;;;4.48;52.86;99054.47;4209028;28;20270;-66
2022/03/31 10:48:31;;;;;;;8.17;3.20;;;;;;;4.35;51.54;99056.56;4211523;28;21196;-67
2022/03/31 10:51:06;;;;;;;6.37;3.40;;;;;;;4.30;52.42;99056.16;4192484;28;20313;-67
2022/03/31 10:53:35;;;;;;;7.43;3.63;;;;;;;4.26;52.01;99050.34;4235855;28;21218;-65
2022/03/31 10:56:19;;;;;;;8.33;3.80;;;;;;;4.13;51.71;99050.59;4197994;28;20268;-66
2022/03/31 10:58:47;;;;;;;19.60;5.70;;;;;;;4.14;51.58;99052.25;4203480;28;22957;-68
2022/03/31 11:01:14;;;;;;;12.90;4.00;;;;;;;4.14;50.85;99051.44;4203928;28;20386;-68
2022/03/31 11:03:40;;;;;;;9.37;3.87;;;;;;;4.23;49.70;99054.06;4183923;28;20561;-66
2022/03/31 11:06:11;;;;;;;9.70;3.37;;;;;;;4.28;49.17;99042.28;4216222;28;20245;-68
2022/03/31 11:08:48;;;;;;;9.73;3.60;;;;;;;4.39;49.78;99044.78;4209864;28;22329;-66
2022/03/31 11:11:27;;;;;;;7.67;3.13;;;;;;;4.50;50.22;99041.19;4181676;28;20236;-66
2022/03/31 11:13:56;;;;;;;9.73;4.10;;;;;;;4.58;50.06;99046.56;4251372;28;20224;-68
2022/03/31 11:16:33;;;;;;;9.27;3.60;;;;;;;4.64;48.81;99048.66;4202872;28;20233;-66
2022/03/31 11:19:04;;;;;;;9.67;3.70;;;;;;;4.63;48.64;99047.78;4193612;28;20320;-64
2022/03/31 11:21:36;;;;;;;9.20;3.20;;;;;;;4.54;47.64;99046.03;4222843;28;21182;-67
2022/03/31 11:24:04;;;;;;;8.83;3.93;;;;;;;4.56;47.26;99033.53;4231627;28;21117;-65
2022/03/31 11:26:34;;;;;;;14.30;3.47;;;;;;;4.59;47.63;99035.91;4190468;28;20306;-65
2022/03/31 11:29:02;;;;;;;11.10;3.50;;;;;;;4.66;47.46;99030.91;4190797;28;22441;-68
2022/03/31 11:31:29;;;;;;;11.53;3.47;;;;;;;4.56;46.40;99025.63;4195081;28;21248;-64
2022/03/31 11:33:56;;;;;;;9.07;3.27;;;;;;;4.61;46.69;99033.09;4193413;28;22128;-67
2022/03/31 11:36:23;;;;;;;11.80;3.80;;;;;;;4.73;46.04;99042.53;4196437;28;20497;-66
2022/03/31 11:38:59;;;;;;;8.50;3.37;;;;;;;4.88;44.40;99042.91;4201631;28;22163;-65